createdAt,value
2023-10-23T00:00:57.284Z,78.39
2023-10-23T00:05:59.627Z,78.54
2023-10-23T00:11:01.806Z,78.29
2023-10-23T00:16:04.152Z,78.77
2023-10-23T00:21:06.333Z,79.03
2023-10-23T00:26:09.124Z,78.01
2023-10-23T00:31:11.351Z,77.31
2023-10-23T00:36:13.486Z,77.83
2023-10-23T00:41:15.648Z,76.71
2023-10-23T00:46:21.711Z,77.16
2023-10-23T00:51:24.013Z,76.92
2023-10-23T00:56:27.319Z,77.75
2023-10-23T01:01:31.055Z,77.87
2023-10-23T01:06:33.397Z,78.31
2023-10-23T01:11:35.639Z,78.66
2023-10-23T01:16:37.923Z,78.86
2023-10-23T01:21:40.136Z,79.40
2023-10-23T01:26:42.325Z,79.77
2023-10-23T01:31:44.528Z,80.24
2023-10-23T01:36:46.815Z,81.04
2023-10-23T01:41:49.018Z,82.05
2023-10-23T01:46:51.205Z,81.48
2023-10-23T01:51:53.398Z,81.27
2023-10-23T01:56:55.675Z,82.07
2023-10-23T02:01:57.901Z,82.13
2023-10-23T02:07:00.040Z,82.73
2023-10-23T02:12:02.761Z,82.60
2023-10-23T02:17:05.289Z,83.01
2023-10-23T02:22:07.403Z,83.63
2023-10-23T02:27:09.509Z,83.17
2023-10-23T02:32:11.743Z,83.55
2023-10-23T02:37:13.989Z,83.25
2023-10-23T02:42:16.131Z,82.96
2023-10-23T02:47:18.302Z,83.22
2023-10-23T02:52:20.540Z,83.17
2023-10-23T02:57:22.916Z,83.58
2023-10-23T03:02:27.825Z,83.24
2023-10-23T03:07:30.032Z,83.25
2023-10-23T03:12:32.239Z,83.49
2023-10-23T03:17:34.493Z,83.48
2023-10-23T03:22:36.709Z,83.23
2023-10-23T03:27:38.969Z,83.39
2023-10-23T03:32:41.094Z,81.77
2023-10-23T03:37:43.286Z,81.64
2023-10-23T03:42:45.475Z,79.98
2023-10-23T03:47:47.902Z,81.17
2023-10-23T03:52:50.042Z,81.53
2023-10-23T03:57:52.538Z,81.09
2023-10-23T04:02:54.828Z,80.36
2023-10-23T04:07:57.192Z,80.57
2023-10-23T04:12:59.380Z,80.16
2023-10-23T04:18:01.625Z,80.25
2023-10-23T04:23:04.575Z,80.53
2023-10-23T04:28:06.720Z,80.16
2023-10-23T04:33:08.940Z,80.59
2023-10-23T04:38:11.116Z,80.31
2023-10-23T04:43:13.604Z,80.19
2023-10-23T04:48:15.737Z,79.92
2023-10-23T04:53:17.859Z,79.04
2023-10-23T04:58:20.150Z,79.59
2023-10-23T05:03:22.562Z,79.90
2023-10-23T05:08:24.787Z,79.71
2023-10-23T05:13:26.929Z,79.93
2023-10-23T05:18:29.075Z,79.50
2023-10-23T05:23:31.310Z,79.33
2023-10-23T05:28:33.522Z,80.36
2023-10-23T05:33:36.145Z,79.82
2023-10-23T05:38:39.280Z,79.76
2023-10-23T05:43:41.482Z,79.18
2023-10-23T05:48:43.664Z,78.66
2023-10-23T05:53:46.755Z,78.93
2023-10-23T05:58:49.994Z,79.50
2023-10-23T06:03:54.237Z,79.29
2023-10-23T06:08:56.543Z,79.50
2023-10-23T06:13:58.783Z,80.10
2023-10-23T06:19:01.167Z,79.74
2023-10-23T06:24:04.886Z,78.23
2023-10-23T06:29:07.091Z,77.94
2023-10-23T06:34:09.246Z,79.79
2023-10-23T06:39:13.863Z,78.51
2023-10-23T06:44:16.573Z,80.19
2023-10-23T06:49:18.700Z,80.01
2023-10-23T06:54:22.808Z,78.95
2023-10-23T06:59:25.184Z,77.80
2023-10-23T07:04:28.183Z,77.32
2023-10-23T07:09:32.284Z,76.64
2023-10-23T07:14:34.458Z,75.23
2023-10-23T07:19:36.726Z,73.73
2023-10-23T07:24:38.847Z,72.69
2023-10-23T07:29:41.156Z,71.14
2023-10-23T07:34:43.461Z,70.16
2023-10-23T07:39:49.229Z,69.27
2023-10-23T07:44:51.535Z,69.87
2023-10-23T07:49:53.701Z,70.84
2023-10-23T07:54:55.882Z,71.36
2023-10-23T07:59:58.050Z,71.60
2023-10-23T08:05:00.851Z,71.91
2023-10-23T08:10:03.768Z,71.79
2023-10-23T08:15:06.411Z,72.14
2023-10-23T08:20:09.163Z,71.44
2023-10-23T08:25:11.357Z,70.72
2023-10-23T08:30:14.000Z,69.78
2023-10-23T08:35:16.692Z,69.35
2023-10-23T08:40:19.100Z,68.30
2023-10-23T08:45:21.613Z,66.50
2023-10-23T08:50:24.737Z,64.05
2023-10-23T08:55:30.073Z,61.87
2023-10-23T09:00:32.278Z,46.32
2023-10-23T09:05:34.657Z,46.37
2023-10-23T09:10:59.859Z,41.06
2023-10-23T09:16:05.277Z,32.08
2023-10-23T09:21:08.342Z,32.68
2023-10-23T09:26:11.056Z,34.18
2023-10-23T09:31:14.409Z,37.77
2023-10-23T09:36:17.779Z,32.50
2023-10-23T09:41:19.936Z,27.85
2023-10-23T09:46:29.354Z,26.49
2023-10-23T09:51:40.055Z,26.57
2023-10-23T09:56:51.687Z,23.08
2023-10-23T10:01:58.826Z,24.76
2023-10-23T10:07:15.739Z,26.60
2023-10-23T10:12:19.857Z,25.79
2023-10-23T10:17:24.312Z,22.78
2023-10-23T10:22:31.145Z,23.83
2023-10-23T10:27:34.146Z,23.51
2023-10-23T10:34:21.213Z,25.49
2023-10-23T10:38:00.726Z,22.31
2023-10-23T10:43:07.243Z,26.11
2023-10-23T10:48:11.350Z,27.30
2023-10-23T10:53:15.658Z,25.79
2023-10-23T10:58:20.077Z,24.58
2023-10-23T11:03:22.369Z,22.39
2023-10-23T11:08:24.697Z,20.15
2023-10-23T11:13:27.053Z,23.86
2023-10-23T11:18:29.836Z,24.05
2023-10-23T11:23:32.346Z,23.13
2023-10-23T11:28:34.516Z,23.25
2023-10-23T11:33:37.237Z,23.57
2023-10-23T11:38:39.534Z,23.69
2023-10-23T11:43:41.760Z,26.43
2023-10-23T11:48:44.047Z,25.95
2023-10-23T11:53:47.579Z,22.45
2023-10-23T11:58:49.765Z,22.27
2023-10-23T12:03:52.530Z,24.08
2023-10-23T12:08:56.716Z,24.74
2023-10-23T12:14:02.252Z,26.00
2023-10-23T12:19:05.624Z,20.95
2023-10-23T12:24:08.441Z,23.19
2023-10-23T12:29:13.845Z,21.84
2023-10-23T12:34:18.010Z,22.37
2023-10-23T12:39:20.585Z,21.00
2023-10-23T12:44:22.838Z,21.86
2023-10-23T12:49:26.338Z,22.74
2023-10-23T12:54:28.598Z,20.08
2023-10-23T12:59:34.371Z,21.50
2023-10-23T13:04:36.940Z,21.56
2023-10-23T13:09:39.458Z,22.11
2023-10-23T13:14:41.753Z,21.87
2023-10-23T13:19:43.923Z,21.54
2023-10-23T13:24:46.119Z,23.03
2023-10-23T13:29:48.888Z,22.78
2023-10-23T13:34:50.989Z,23.10
2023-10-23T13:39:53.628Z,22.70
2023-10-23T13:44:55.928Z,22.15
2023-10-23T13:49:59.566Z,26.54
2023-10-23T13:55:02.035Z,26.89
2023-10-23T14:00:04.900Z,25.53
2023-10-23T14:05:07.975Z,27.59
2023-10-23T14:10:10.529Z,28.23
2023-10-23T14:15:12.724Z,29.05
2023-10-23T14:20:15.014Z,30.97
2023-10-23T14:25:17.308Z,36.50
2023-10-23T14:30:19.858Z,31.93
2023-10-23T14:35:21.984Z,30.94
2023-10-23T14:40:24.208Z,39.89
2023-10-23T14:45:26.476Z,38.68
2023-10-23T14:50:28.881Z,41.59
2023-10-23T14:55:31.088Z,43.26
2023-10-23T15:00:35.700Z,40.88
2023-10-23T15:05:37.984Z,43.50
2023-10-23T15:10:40.177Z,47.01
2023-10-23T15:15:42.673Z,49.45
2023-10-23T15:20:45.502Z,51.59
2023-10-23T15:25:49.449Z,53.49
2023-10-23T15:30:54.689Z,55.70
2023-10-23T15:35:58.560Z,57.84
2023-10-23T15:41:06.732Z,59.68
2023-10-23T15:46:16.868Z,60.99
2023-10-23T15:51:19.170Z,61.73
2023-10-23T15:56:21.526Z,61.84
2023-10-23T16:01:23.842Z,63.25
2023-10-23T16:06:26.099Z,64.29
2023-10-23T16:11:29.853Z,64.89
2023-10-23T16:16:35.134Z,65.92
2023-10-23T16:21:37.387Z,67.22
2023-10-23T16:26:39.563Z,67.69
2023-10-23T16:31:41.758Z,68.04
2023-10-23T16:36:43.923Z,68.03
2023-10-23T16:41:48.356Z,68.73
2023-10-23T16:46:53.829Z,69.07
2023-10-23T16:51:56.157Z,69.26
2023-10-23T16:56:58.399Z,69.33
2023-10-23T17:02:00.733Z,68.45
2023-10-23T17:07:04.413Z,69.12
2023-10-23T17:12:06.921Z,69.54
2023-10-23T17:17:10.025Z,70.38
2023-10-23T17:22:12.323Z,71.16
2023-10-23T17:27:14.498Z,71.78
2023-10-23T17:32:16.616Z,72.31
2023-10-23T17:37:18.806Z,73.15
2023-10-23T17:42:21.073Z,73.67
2023-10-23T17:47:25.210Z,72.97
2023-10-23T17:52:27.761Z,72.45
2023-10-23T17:57:30.809Z,72.98
2023-10-23T18:02:33.008Z,73.98
2023-10-23T18:07:35.300Z,77.37
2023-10-23T18:12:38.696Z,77.02
2023-10-23T18:17:41.402Z,70.70
2023-10-23T18:22:44.149Z,71.51
2023-10-23T18:27:46.502Z,71.54
2023-10-23T18:32:48.909Z,71.00
2023-10-23T18:37:51.316Z,70.76
2023-10-23T18:42:58.041Z,70.96
2023-10-23T18:48:03.485Z,70.37
2023-10-23T18:53:06.530Z,69.92
2023-10-23T18:58:11.496Z,70.32
2023-10-23T19:03:19.972Z,71.14
2023-10-23T19:08:23.508Z,71.89
2023-10-23T19:13:26.138Z,71.92
2023-10-23T19:18:31.001Z,71.87
2023-10-23T19:23:33.660Z,72.35
2023-10-23T19:28:36.732Z,73.36
2023-10-23T19:33:40.080Z,73.15
2023-10-23T19:38:43.497Z,73.74
2023-10-23T19:43:53.341Z,74.35
2023-10-23T19:48:55.871Z,73.99
2023-10-23T19:53:58.339Z,74.59
2023-10-23T19:59:00.942Z,74.75
2023-10-23T20:04:04.766Z,75.00
2023-10-23T20:09:06.998Z,74.57
2023-10-23T20:14:13.934Z,74.83
2023-10-23T20:19:16.527Z,73.42
2023-10-23T20:24:18.766Z,74.99
2023-10-23T20:29:21.018Z,76.54
2023-10-23T20:34:23.279Z,76.47
2023-10-23T20:39:26.086Z,76.26
2023-10-23T20:44:28.745Z,76.23
2023-10-23T20:49:31.127Z,75.95
2023-10-23T20:54:33.270Z,74.35
2023-10-23T20:59:35.361Z,73.42
2023-10-23T21:04:37.576Z,72.67
2023-10-23T21:09:40.238Z,72.33
2023-10-23T21:14:47.699Z,74.11
2023-10-23T21:19:50.048Z,74.37
2023-10-23T21:24:52.309Z,74.73
2023-10-23T21:29:54.923Z,72.86
2023-10-23T21:34:57.111Z,73.96
2023-10-23T21:39:59.275Z,72.03
2023-10-23T21:45:01.462Z,70.73
2023-10-23T21:50:04.111Z,70.60
2023-10-23T21:55:13.645Z,70.63
2023-10-23T22:00:30.792Z,72.63
2023-10-23T22:05:33.291Z,72.97
2023-10-23T22:10:35.920Z,73.11
2023-10-23T22:15:38.128Z,72.40
2023-10-23T22:20:40.272Z,72.66
2023-10-23T22:25:42.512Z,76.69
2023-10-23T22:30:44.665Z,73.16
2023-10-23T22:35:46.921Z,74.06
2023-10-23T22:40:49.870Z,74.00
2023-10-23T22:46:02.417Z,74.32
2023-10-23T22:51:06.483Z,74.43
2023-10-23T22:56:10.316Z,74.61
2023-10-23T23:01:12.769Z,74.60
2023-10-23T23:06:19.906Z,75.99
2023-10-23T23:11:22.440Z,75.93
2023-10-23T23:16:25.940Z,76.27
2023-10-23T23:21:30.833Z,76.89
2023-10-23T23:26:34.209Z,76.74
2023-10-23T23:31:36.471Z,77.04
2023-10-23T23:36:38.736Z,77.26
2023-10-23T23:41:40.823Z,77.16
2023-10-23T23:46:43.020Z,76.55
2023-10-23T23:51:45.219Z,76.49
2023-10-23T23:56:47.340Z,78.04
